Wichita Falls, Texas
Current Conditions -  °F | °C
As of 10:15 AM on Friday 21 Nov 2014 (Local Time) from KCWC Reporting Station
Overcast Overcast  
Wind Chill: 61°   Ceiling: 2500
Heat Index: 61°   Visibility: 10mi
Dew Point: 54°   Wind: 12mph
Humidity: 77%   Direction: 230°SW
Pressure: 30.1"   Gusts: NA
Location:  33.91°N, 98.5°W
Report Text: KCWC 211615Z AUTO 23010KT 180V250 10SM OVC025 16/12 A3010 RMK AO2 T01600120
Loading
Personal Weather Stations






























Interactive Weather Map New forecast layout! Learn more

10-Day Weather Forecast

Advertisements
Track Severe Weather on mobile